Terminal Aerodrome Forecast
Issued by NWS Quad Cities IA IL

Home | Current Version | Previous Version | Text Only | Print | Product List | Glossary On
Versions: 1 2 3 4 5 6 7 8 9 10 11 12 13 14 15 16 17 18 19 20 21 22
000
FTUS43 KDVN 182300
TAFDBQ
TAF
KDBQ 182339Z 1900/1924 21010KT P6SM SCT035 SCT250
     FM190400 22005KT P6SM VCTS BKN050CB
     FM190900 25006KT 4SM BR SCT050 SCT250
     FM191400 28011KT P6SM SCT250=

USA.gov is the U.S. government's official web portal to all federal, state and local government web resources and services.